Flight Briefing for CMB831

Departure Arrival
Norfolk Naval Station (Chambers Field) (KNGU)
Click to view FAA NOTAMS
KeflavĂ­k International Airport (BIKF)
Click to view FAA NOTAMS
Departure Time Arrival Time
N/A N/A
Aircraft Distance
B757-200SF 2503nm
Departure METAR Arrival METAR
KNGU 270959Z VRB04KT 9SM FEW060 BKN130 23/21 A2991 RMK AO2 RAE16 SLP129 P0000 T02330211 BIKF 271030Z 36007KT 320V020 CAVOK 10/M01 Q1014
Suggested Route
SBY J79 JFK J37 ALB J563 HO PORGY 5950N N6140 EPENI ELDIS ELDIS2M


View recent IFR Routes data
Notes
USTRANSCOM CONTRACT FLIGHT

Charts and Procedures

Charts for KNGU
No chart available
Charts for BIKF
No chart available

Windy.com Weather Map